Latest Weather Observations for Ernabella/Pukatja

IDD60801

Issued at 10:05 am CST Saturday 25 October 2014 (issued every 30 minutes, with the page automatically refreshed every 10 minutes)

About weather observations | Map of weather stations | Latest weather observations for NT | Other Formats
Station Details ID: 016097 Name: PUKATJA Lat: -26.26 Lon: 132.18 Height: 703.2 m
Data from the previous 72 hours. | See also: Recent months at Ernabella/Pukatja
Date/Time
CST
Temp
°C
App
Temp
°C
Dew
Point
Rel
Hum
%
Delta-T
°C
Wind Press
QNH
hPa
Press
MSL
hPa
Rain
since 9 am
mm
Dir
 
Spd
km/h
Gust
km/h
Spd
kts
Gust
kts
25/10:00am 33.9 30.5 -0.7 11 17.3 ENE 7 22 4 12 1020.7 - 0.0
25/09:30am 33.7 28.1 1.5 13 16.6 E 20 32 11 17 1020.9 - 0.0
25/09:00am 33.3 27.1 2.2 14 16.3 ESE 24 35 13 19 1021.1 - 0.0
25/08:30am 31.7 24.8 2.8 16 15.1 ESE 28 39 15 21 1021.0 - 0.0
25/08:00am 30.9 25.9 3.8 18 14.3 ESE 19 26 10 14 1021.0 1017.8 0.0
25/07:30am 29.3 24.8 4.0 20 13.3 ESE 17 22 9 12 1021.0 - 0.0
25/07:00am 27.7 23.9 4.1 22 12.3 SE 13 20 7 11 1020.8 - 0.0
25/06:30am 24.7 21.7 3.9 26 10.6 ESE 9 11 5 6 1020.5 - 0.0
25/06:00am 23.7 20.2 3.6 27 10.1 ENE 11 13 6 7 1020.1 - 0.0
25/05:30am 26.3 22.9 4.1 24 11.5 SE 11 17 6 9 1019.6 - 0.0
25/05:00am 25.5 22.3 2.9 23 11.4 SE 9 17 5 9 1019.3 1016.0 0.0
25/04:30am 24.9 21.7 3.0 24 11.0 E 9 15 5 8 1019.1 - 0.0
25/04:00am 27.7 23.4 3.4 21 12.5 SE 15 22 8 12 1018.6 - 0.0
25/03:30am 28.2 23.5 3.1 20 12.9 SE 17 20 9 11 1018.3 - 0.0
25/03:00am 29.0 24.3 3.1 19 13.4 SSE 17 28 9 15 1018.2 - 0.0
25/02:30am 28.4 24.7 2.6 19 13.2 SSE 11 17 6 9 1018.3 - 0.0
25/02:00am 28.4 24.9 3.3 20 13.0 SSE 11 15 6 8 1018.8 1015.5 0.0
25/01:30am 27.5 24.6 2.6 20 12.7 SSW 7 9 4 5 1019.1 - 0.0
25/01:00am 29.5 25.5 2.7 18 13.8 S 13 19 7 10 1019.0 - 0.0
25/12:30am 27.5 25.9 2.6 20 12.7 CALM 0 0 0 0 1019.1 - 0.0
25/12:00am 27.6 24.9 2.6 20 12.7 WSW 6 9 3 5 1019.0 - 0.0
 
Date/Time
CST
Temp
°C
App
Temp
°C
Dew
Point
Rel
Hum
%
Delta-T
°C
Wind Press
QNH
hPa
Press
MSL
hPa
Rain
since 9 am
mm
Dir
 
Spd
km/h
Gust
km/h
Spd
kts
Gust
kts
24/11:30pm 27.3 25.3 2.4 20 12.6 W 2 9 1 5 1019.0 - 0.0
24/11:00pm 28.6 25.8 2.0 18 13.4 WNW 6 7 3 4 1019.0 1015.7 0.0
24/10:30pm 28.9 26.1 2.2 18 13.6 WSW 6 9 3 5 1019.1 - 0.0
24/10:00pm 29.7 26.7 2.1 17 14.1 SSW 7 13 4 7 1019.0 - 0.0
24/09:30pm 30.4 26.4 2.6 17 14.4 SSE 13 19 7 10 1018.9 - 0.0
24/09:00pm 29.8 26.2 2.9 18 13.9 SSE 11 15 6 8 1018.9 - 0.0
24/08:30pm 30.2 25.8 2.5 17 14.3 S 15 20 8 11 1018.5 - 0.0
24/08:00pm 30.9 25.5 2.2 16 14.8 SSE 20 24 11 13 1018.0 1014.7 0.0
24/07:30pm 31.2 25.8 1.5 15 15.2 SSE 19 26 10 14 1017.8 - 0.0
24/07:00pm 31.4 25.1 1.7 15 15.2 S 24 33 13 18 1017.2 - 0.0
24/06:30pm 31.5 24.2 2.7 16 15.0 S 30 39 16 21 1017.2 - 0.0
24/06:00pm 32.2 25.3 2.3 15 15.6 S 28 37 15 20 1017.0 - 0.0
24/05:30pm 33.7 27.8 -2.1 10 17.5 SE 19 35 10 19 1016.0 - 0.0
24/05:12pm 33.4 25.6 -1.0 11 17.1 S 30 52 16 28 1015.9 - 0.0
24/05:00pm 34.0 26.1 -1.9 10 17.6 S 30 44 16 24 1015.9 1012.5 0.0
24/04:50pm 34.2 26.7 -1.7 10 17.7 S 28 48 15 26 1015.6 - 0.0
24/04:30pm 34.3 27.9 -1.7 10 17.8 S 22 32 12 17 1015.8 - 0.0
24/04:18pm 34.1 26.5 -1.8 10 17.7 SW 28 59 15 32 1015.8 - 0.0
24/04:00pm 34.2 28.9 -3.2 9 18.0 WNW 15 52 8 28 1016.1 - 0.0
24/03:30pm 34.7 26.1 -2.8 9 18.2 W 33 57 18 31 1015.3 - 0.0
24/03:27pm 35.0 27.3 -2.6 9 18.4 W 28 50 15 27 1015.5 - 0.0
24/03:00pm 36.2 31.7 -3.3 8 19.2 SW 11 19 6 10 1015.5 - 0.0
24/02:30pm 38.1 32.8 -3.7 7 20.5 S 15 22 8 12 1015.8 - 0.0
24/02:00pm 37.0 32.6 -2.7 8 19.6 SE 11 24 6 13 1016.2 1012.9 0.0
24/01:30pm 36.9 32.5 -2.7 8 19.6 E 11 17 6 9 1016.7 - 0.0
24/01:00pm 37.2 33.2 -2.5 8 19.7 E 9 15 5 8 1017.1 - 0.0
24/12:30pm 36.3 31.4 -3.2 8 19.3 E 13 20 7 11 1017.4 - 0.0
24/12:00pm 35.4 31.0 -2.3 9 18.6 E 11 19 6 10 1017.8 - 0.0
24/11:30am 34.4 30.3 -3.0 9 18.1 NE 9 15 5 8 1018.2 - 0.0
24/11:00am 33.3 28.9 -2.4 10 17.3 ENE 11 22 6 12 1018.6 1015.3 0.0
24/10:30am 33.3 28.9 -2.4 10 17.3 NE 11 22 6 12 1018.8 - 0.0
24/10:00am 33.2 29.0 -1.2 11 17.0 ENE 11 19 6 10 1018.9 - 0.0
24/09:30am 31.9 29.3 1.1 14 15.7 S 4 7 2 4 1019.0 - 0.0
24/09:00am 30.7 27.7 2.0 16 14.7 SE 7 11 4 6 1019.0 - 0.0
24/08:30am 29.4 26.5 2.6 18 13.8 SE 7 13 4 7 1018.9 - 0.0
24/08:00am 28.5 25.4 3.4 20 13.0 SSE 9 11 5 6 1018.9 1015.6 0.0
24/07:30am 27.7 25.9 3.4 21 12.5 W 2 6 1 3 1018.6 - 0.0
24/07:00am 26.8 25.1 4.0 23 11.8 WNW 2 7 1 4 1018.2 - 0.0
24/06:30am 25.0 22.3 3.6 25 10.9 W 7 13 4 7 1017.8 - 0.0
24/06:00am 25.5 23.3 3.5 24 11.2 E 4 7 2 4 1017.6 - 0.0
24/05:30am 26.2 23.1 3.4 23 11.7 WSW 9 13 5 7 1017.5 - 0.0
24/05:00am 26.7 22.5 3.9 23 11.8 SE 15 22 8 12 1017.1 1013.7 0.0
24/04:30am 25.9 22.8 3.8 24 11.4 ENE 9 13 5 7 1016.7 - 0.0
24/04:00am 27.2 22.0 3.7 22 12.2 SSE 20 26 11 14 1016.6 - 0.0
24/03:30am 25.9 23.3 3.2 23 11.5 SE 6 9 3 5 1017.0 - 0.0
24/03:00am 27.8 23.8 2.8 20 12.8 SE 13 17 7 9 1017.0 - 0.0
24/02:30am 29.3 24.5 2.5 18 13.7 S 17 26 9 14 1016.6 - 0.0
24/02:00am 29.2 23.4 2.5 18 13.7 S 22 30 12 16 1017.0 1013.6 0.0
24/01:30am 29.3 23.4 1.7 17 14.0 S 22 32 12 17 1017.3 - 0.0
24/01:00am 30.3 24.5 -0.1 14 15.0 SSE 20 26 11 14 1017.2 - 0.0
24/12:30am 30.3 25.6 0.8 15 14.8 S 15 24 8 13 1017.7 - 0.0
24/12:00am 27.1 23.0 -2.7 14 13.7 ESE 9 11 5 6 1017.5 - 0.0
 
Date/Time
CST
Temp
°C
App
Temp
°C
Dew
Point
Rel
Hum
%
Delta-T
°C
Wind Press
QNH
hPa
Press
MSL
hPa
Rain
since 9 am
mm
Dir
 
Spd
km/h
Gust
km/h
Spd
kts
Gust
kts
23/11:30pm 25.5 22.0 -3.0 15 12.9 NNE 6 7 3 4 1017.3 - 0.0
23/11:00pm 24.4 22.0 -3.0 16 12.3 CALM 0 0 0 0 1017.6 1014.3 0.0
23/10:30pm 25.5 23.1 -3.0 15 12.9 CALM 0 0 0 0 1017.7 - 0.0
23/10:00pm 25.8 23.4 -2.8 15 13.0 CALM 0 0 0 0 1017.7 - 0.0
23/09:30pm 27.5 23.9 -3.3 13 14.1 SW 6 7 3 4 1017.6 - 0.0
23/09:00pm 29.0 25.5 -3.2 12 14.9 SW 6 7 3 4 1017.3 - 0.0
23/08:30pm 29.6 26.0 -3.9 11 15.4 N 6 7 3 4 1017.1 - 0.0
23/08:00pm 30.1 26.9 -3.6 11 15.6 NNE 4 7 2 4 1017.0 1013.6 0.0
23/07:30pm 31.7 27.0 -5.0 9 16.9 NW 11 13 6 7 1016.5 - 0.0
23/07:00pm 33.0 28.8 -4.0 9 17.4 WNW 9 13 5 7 1016.1 - 0.0
23/06:30pm 33.8 29.1 -5.0 8 18.1 NW 11 17 6 9 1015.9 - 0.0
23/06:00pm 34.5 29.5 -4.5 8 18.4 NNW 13 22 7 12 1015.6 - 0.0
23/05:30pm 35.4 30.5 -3.8 8 18.9 NW 13 20 7 11 1015.3 - 0.0
23/05:00pm 35.2 29.1 -4.0 8 18.8 NNW 19 24 10 13 1015.2 1011.9 0.0
23/04:30pm 36.2 29.8 -5.0 7 19.5 NW 20 28 11 15 1015.0 - 0.0
23/04:00pm 36.3 30.1 -5.0 7 19.6 W 19 30 10 16 1015.1 - 0.0
23/03:30pm 36.9 31.1 -4.5 7 19.9 NW 17 28 9 15 1015.1 - 0.0
23/03:00pm 36.3 30.8 -5.0 7 19.6 N 15 26 8 14 1015.3 - 0.0
23/02:30pm 36.2 29.4 -5.0 7 19.5 N 22 30 12 16 1015.6 - 0.0
23/02:00pm 36.2 29.8 -5.0 7 19.5 N 20 32 11 17 1015.9 1012.5 0.0
23/01:30pm 36.6 29.8 -4.7 7 19.7 N 22 37 12 20 1016.2 - 0.0
23/01:00pm 37.0 29.9 -4.4 7 19.9 N 24 43 13 23 1016.7 - 0.0
23/12:30pm 35.1 28.8 -4.1 8 18.7 N 20 35 11 19 1017.2 - 0.0
23/12:00pm 35.7 28.3 -3.6 8 19.0 NW 26 35 14 19 1017.6 - 0.0
23/11:30am 34.8 27.5 -2.7 9 18.3 NNW 26 35 14 19 1018.0 - 0.0
23/11:00am 35.2 29.1 -4.0 8 18.7 NNW 19 32 10 17 1018.3 1015.0 0.0
23/10:30am 33.8 26.4 -3.5 9 17.8 N 26 39 14 21 1018.6 - 0.0
23/10:00am 33.2 25.9 -2.5 10 17.3 N 26 35 14 19 1018.7 - 0.0
23/09:30am 32.6 26.4 -2.9 10 17.0 N 20 32 11 17 1018.9 - 0.0
23/09:00am 31.2 25.2 -1.5 12 15.9 N 20 26 11 14 1018.9 - 0.0
23/08:30am 28.8 23.9 -0.4 15 14.2 ENE 15 19 8 10 1018.9 - 0.0
23/08:00am 26.3 22.0 0.9 19 12.4 ENE 13 17 7 9 1018.9 1015.6 0.0
23/07:30am 25.7 21.4 1.1 20 12.0 E 13 19 7 10 1018.9 - 0.0
23/07:00am 23.9 20.8 1.5 23 10.9 ENE 7 11 4 6 1019.0 - 0.0
23/06:30am 21.1 19.3 1.4 27 9.4 CALM 0 0 0 0 1018.9 - 0.0
23/06:00am 19.0 16.4 1.1 30 8.3 ENE 4 7 2 4 1018.8 - 0.0
23/05:30am 19.5 16.4 1.5 30 8.5 NE 7 9 4 5 1018.7 - 0.0
23/05:00am 20.6 17.1 1.5 28 9.1 ENE 9 11 5 6 1018.5 1015.2 0.0
23/04:30am 21.6 18.2 1.8 27 9.5 E 9 11 5 6 1018.5 - 0.0
23/04:00am 22.7 18.5 1.7 25 10.2 NE 13 15 7 8 1018.3 - 0.0
23/03:30am 24.9 19.6 1.7 22 11.4 ENE 19 24 10 13 1018.3 - 0.0
23/03:00am 26.4 20.5 1.7 20 12.3 E 22 39 12 21 1018.1 - 0.0
23/02:30am 26.5 20.2 1.7 20 12.3 ESE 24 37 13 20 1018.1 - 0.0
23/02:00am 27.1 19.6 1.5 19 12.7 SE 30 48 16 26 1018.6 1015.3 0.0
23/01:59am 27.2 19.8 1.6 19 12.8 SE 30 48 16 26 1018.6 - 0.0
23/01:30am 27.0 19.6 2.1 20 12.5 SE 30 43 16 23 1018.9 - 0.0
23/01:00am 27.0 19.6 2.1 20 12.5 SE 30 43 16 23 1019.2 - 0.0
23/12:30am 27.3 21.0 1.7 19 12.8 SE 24 33 13 18 1019.4 - 0.0
23/12:00am 27.4 21.4 1.0 18 13.0 SE 22 32 12 17 1019.8 - 0.0
 
Date/Time
CST
Temp
°C
App
Temp
°C
Dew
Point
Rel
Hum
%
Delta-T
°C
Wind Press
QNH
hPa
Press
MSL
hPa
Rain
since 9 am
mm
Dir
 
Spd
km/h
Gust
km/h
Spd
kts
Gust
kts
22/11:30pm 27.7 22.0 0.5 17 13.3 SE 20 32 11 17 1019.7 - 0.0
22/11:00pm 28.7 23.0 0.4 16 13.9 SE 20 33 11 18 1019.8 1016.6 0.0
22/10:30pm 29.0 23.2 -0.2 15 14.3 SE 20 26 11 14 1019.7 - 0.0
22/10:00pm 29.4 23.3 0.1 15 14.4 SE 22 32 12 17 1019.8 - 0.0
22/09:30pm 30.0 24.3 -0.4 14 14.9 SSE 19 32 10 17 1019.6 - 0.0
22/09:00pm 30.0 25.1 -0.4 14 14.9 SSE 15 22 8 12 1019.2 - 0.0
22/08:30pm 30.9 25.2 -0.7 13 15.5 SSE 19 26 10 14 1018.8 - 0.0
22/08:00pm 31.7 26.6 -2.3 11 16.3 SSE 15 22 8 12 1018.3 1015.0 0.0
22/07:30pm 31.9 26.8 -2.2 11 16.4 SSE 15 20 8 11 1018.0 - 0.0
22/07:00pm 32.6 27.4 -2.9 10 17.0 SSE 15 20 8 11 1017.6 - 0.0
22/06:30pm 33.8 28.5 -3.5 9 17.8 SSE 15 20 8 11 1017.2 - 0.0
22/06:00pm 34.8 29.2 -2.7 9 18.3 SSE 17 22 9 12 1017.0 - 0.0
22/05:30pm 35.1 30.9 -4.1 8 18.7 SE 9 19 5 10 1016.8 - 0.0
22/05:00pm 34.9 31.0 -4.2 8 18.6 S 7 13 4 7 1016.7 1013.4 0.0
22/04:30pm 35.2 29.5 -4.0 8 18.8 SW 17 24 9 13 1016.8 - 0.0
22/04:00pm 35.8 29.6 -5.3 7 19.4 WNW 19 26 10 14 1017.1 - 0.0
22/03:30pm 36.3 31.6 -5.0 7 19.6 WSW 11 19 6 10 1017.2 - 0.0
22/03:00pm 36.2 31.5 -5.0 7 19.5 NW 11 19 6 10 1017.4 - 0.0
22/02:30pm 35.4 30.8 -3.8 8 18.9 SE 11 17 6 9 1018.0 - 0.0
22/02:00pm 36.2 31.1 -5.0 7 19.5 NNE 13 24 7 13 1018.5 1015.2 0.0
22/01:30pm 34.7 29.3 -4.4 8 18.5 N 15 24 8 13 1019.0 - 0.0
22/01:00pm 35.1 30.5 -4.1 8 18.7 NNW 11 24 6 13 1019.2 - 0.0
22/12:30pm 34.1 29.2 -3.2 9 18.0 ENE 13 20 7 11 1019.8 - 0.0
22/12:00pm 33.8 29.6 -0.7 11 17.3 NNE 11 17 6 9 1020.4 - 0.0
22/11:30am 32.1 27.9 -0.9 12 16.3 NNW 11 20 6 11 1020.7 - 0.0
22/11:00am 31.6 27.9 -0.1 13 15.8 ESE 9 17 5 9 1021.0 1017.8 0.0
22/10:30am 29.9 25.8 2.2 17 14.2 E 13 17 7 9 1021.2 - 0.0
22/10:00am 28.8 25.1 2.1 18 13.6 E 11 19 6 10 1021.4 - 0.0
22/09:30am 27.8 24.7 3.5 21 12.6 E 9 17 5 9 1021.8 - 0.0

Other Formats:

Comma delimited format used in spreadsheet applications
http://www.bom.gov.au/fwo/IDD60801/IDD60801.94474.axf

JavaScript Object Notation format (JSON) in row-major order
http://www.bom.gov.au/fwo/IDD60801/IDD60801.94474.json